sensor_id;sensor_type;location;lat;lon;timestamp;P1;durP1;ratioP1;P2;durP2;ratioP2
30970;SDS011;17651;52.262;10.498;2023-04-24T00:01:26;3.58;;;1.30;;
30970;SDS011;17651;52.262;10.498;2023-04-24T00:03:39;1.75;;;1.00;;
30970;SDS011;17651;52.262;10.498;2023-04-24T00:05:51;2.08;;;1.10;;
30970;SDS011;17651;52.262;10.498;2023-04-24T00:08:02;1.65;;;1.55;;
30970;SDS011;17651;52.262;10.498;2023-04-24T00:10:13;3.53;;;1.25;;
30970;SDS011;17651;52.262;10.498;2023-04-24T00:12:24;1.85;;;1.48;;
30970;SDS011;17651;52.262;10.498;2023-04-24T00:14:35;2.58;;;1.23;;
30970;SDS011;17651;52.262;10.498;2023-04-24T00:16:47;1.40;;;1.30;;
30970;SDS011;17651;52.262;10.498;2023-04-24T00:18:58;2.30;;;1.42;;
30970;SDS011;17651;52.262;10.498;2023-04-24T00:21:11;2.90;;;1.50;;
30970;SDS011;17651;52.262;10.498;2023-04-24T00:23:22;2.70;;;1.70;;
30970;SDS011;17651;52.262;10.498;2023-04-24T00:25:33;1.40;;;1.30;;
30970;SDS011;17651;52.262;10.498;2023-04-24T00:27:44;2.10;;;1.55;;
30970;SDS011;17651;52.262;10.498;2023-04-24T00:29:55;2.75;;;1.85;;
30970;SDS011;17651;52.262;10.498;2023-04-24T00:32:06;4.80;;;2.17;;
30970;SDS011;17651;52.262;10.498;2023-04-24T00:34:17;8.10;;;3.90;;
30970;SDS011;17651;52.262;10.498;2023-04-24T00:36:28;11.27;;;5.88;;
30970;SDS011;17651;52.262;10.498;2023-04-24T00:38:40;15.13;;;6.10;;
30970;SDS011;17651;52.262;10.498;2023-04-24T00:40:51;14.05;;;5.70;;
30970;SDS011;17651;52.262;10.498;2023-04-24T00:43:04;7.00;;;3.47;;
30970;SDS011;17651;52.262;10.498;2023-04-24T00:45:15;5.78;;;3.05;;
30970;SDS011;17651;52.262;10.498;2023-04-24T00:47:26;9.63;;;2.42;;
30970;SDS011;17651;52.262;10.498;2023-04-24T00:49:38;5.55;;;1.70;;
30970;SDS011;17651;52.262;10.498;2023-04-24T00:51:49;1.50;;;1.17;;
30970;SDS011;17651;52.262;10.498;2023-04-24T00:54:01;1.92;;;1.35;;
30970;SDS011;17651;52.262;10.498;2023-04-24T00:56:12;3.10;;;1.30;;
30970;SDS011;17651;52.262;10.498;2023-04-24T00:58:24;2.63;;;1.42;;
30970;SDS011;17651;52.262;10.498;2023-04-24T01:00:35;3.47;;;1.55;;
30970;SDS011;17651;52.262;10.498;2023-04-24T01:02:46;2.60;;;1.48;;
30970;SDS011;17651;52.262;10.498;2023-04-24T01:04:58;2.45;;;1.73;;
30970;SDS011;17651;52.262;10.498;2023-04-24T01:07:10;4.05;;;1.80;;
30970;SDS011;17651;52.262;10.498;2023-04-24T01:09:21;8.50;;;2.67;;
30970;SDS011;17651;52.262;10.498;2023-04-24T01:11:34;6.47;;;2.17;;
30970;SDS011;17651;52.262;10.498;2023-04-24T01:13:45;4.13;;;1.80;;
30970;SDS011;17651;52.262;10.498;2023-04-24T01:15:57;4.18;;;2.75;;
30970;SDS011;17651;52.262;10.498;2023-04-24T01:18:08;6.50;;;2.38;;
30970;SDS011;17651;52.262;10.498;2023-04-24T01:20:19;4.40;;;1.98;;
30970;SDS011;17651;52.262;10.498;2023-04-24T01:22:32;4.07;;;1.70;;
30970;SDS011;17651;52.262;10.498;2023-04-24T01:24:43;3.33;;;1.92;;
30970;SDS011;17651;52.262;10.498;2023-04-24T01:26:56;2.63;;;1.50;;
30970;SDS011;17651;52.262;10.498;2023-04-24T01:29:07;2.30;;;1.70;;
30970;SDS011;17651;52.262;10.498;2023-04-24T01:31:18;1.50;;;1.40;;
30970;SDS011;17651;52.262;10.498;2023-04-24T01:33:29;1.80;;;1.40;;
30970;SDS011;17651;52.262;10.498;2023-04-24T01:35:41;3.15;;;1.60;;
30970;SDS011;17651;52.262;10.498;2023-04-24T01:37:52;1.80;;;1.30;;
30970;SDS011;17651;52.262;10.498;2023-04-24T01:40:04;3.08;;;1.40;;
30970;SDS011;17651;52.262;10.498;2023-04-24T01:42:16;3.28;;;1.60;;
30970;SDS011;17651;52.262;10.498;2023-04-24T01:44:30;2.58;;;1.75;;
30970;SDS011;17651;52.262;10.498;2023-04-24T01:46:42;3.10;;;2.00;;
30970;SDS011;17651;52.262;10.498;2023-04-24T01:48:53;7.82;;;2.03;;
30970;SDS011;17651;52.262;10.498;2023-04-24T01:51:04;2.00;;;1.58;;
30970;SDS011;17651;52.262;10.498;2023-04-24T01:53:16;4.25;;;1.67;;
30970;SDS011;17651;52.262;10.498;2023-04-24T01:55:27;3.72;;;1.75;;
30970;SDS011;17651;52.262;10.498;2023-04-24T01:57:38;2.30;;;1.60;;
30970;SDS011;17651;52.262;10.498;2023-04-24T01:59:49;1.67;;;1.25;;
30970;SDS011;17651;52.262;10.498;2023-04-24T02:02:00;2.95;;;1.42;;
30970;SDS011;17651;52.262;10.498;2023-04-24T02:04:11;4.45;;;1.73;;
30970;SDS011;17651;52.262;10.498;2023-04-24T02:06:23;3.97;;;1.70;;
30970;SDS011;17651;52.262;10.498;2023-04-24T02:08:34;2.60;;;1.83;;
30970;SDS011;17651;52.262;10.498;2023-04-24T02:10:45;4.00;;;1.50;;
30970;SDS011;17651;52.262;10.498;2023-04-24T02:12:56;2.47;;;1.58;;
30970;SDS011;17651;52.262;10.498;2023-04-24T02:15:09;1.83;;;1.27;;
30970;SDS011;17651;52.262;10.498;2023-04-24T02:17:21;4.45;;;1.60;;
30970;SDS011;17651;52.262;10.498;2023-04-24T02:19:32;2.15;;;1.40;;
30970;SDS011;17651;52.262;10.498;2023-04-24T02:21:43;1.67;;;1.23;;
30970;SDS011;17651;52.262;10.498;2023-04-24T02:23:54;2.90;;;1.45;;
30970;SDS011;17651;52.262;10.498;2023-04-24T02:26:05;2.47;;;1.58;;
30970;SDS011;17651;52.262;10.498;2023-04-24T02:28:17;1.60;;;1.45;;
30970;SDS011;17651;52.262;10.498;2023-04-24T02:30:28;1.83;;;1.30;;
30970;SDS011;17651;52.262;10.498;2023-04-24T02:32:39;1.88;;;1.60;;
30970;SDS011;17651;52.262;10.498;2023-04-24T02:34:50;1.70;;;1.30;;
30970;SDS011;17651;52.262;10.498;2023-04-24T02:37:01;2.30;;;1.45;;
30970;SDS011;17651;52.262;10.498;2023-04-24T02:39:12;1.48;;;1.23;;
30970;SDS011;17651;52.262;10.498;2023-04-24T02:41:24;1.55;;;1.30;;
30970;SDS011;17651;52.262;10.498;2023-04-24T02:43:41;1.75;;;1.20;;
30970;SDS011;17651;52.262;10.498;2023-04-24T02:45:52;3.13;;;1.60;;
30970;SDS011;17651;52.262;10.498;2023-04-24T02:48:03;2.10;;;1.20;;
30970;SDS011;17651;52.262;10.498;2023-04-24T02:50:14;1.85;;;1.40;;
30970;SDS011;17651;52.262;10.498;2023-04-24T02:52:25;1.58;;;1.30;;
30970;SDS011;17651;52.262;10.498;2023-04-24T02:54:36;2.55;;;1.40;;
30970;SDS011;17651;52.262;10.498;2023-04-24T02:56:48;3.50;;;1.55;;
30970;SDS011;17651;52.262;10.498;2023-04-24T02:58:59;4.95;;;1.90;;
30970;SDS011;17651;52.262;10.498;2023-04-24T03:01:10;2.30;;;1.33;;
30970;SDS011;17651;52.262;10.498;2023-04-24T03:03:21;2.60;;;1.50;;
30970;SDS011;17651;52.262;10.498;2023-04-24T03:05:32;2.28;;;1.40;;
30970;SDS011;17651;52.262;10.498;2023-04-24T03:07:44;1.40;;;1.30;;
30970;SDS011;17651;52.262;10.498;2023-04-24T03:09:55;1.90;;;1.00;;
30970;SDS011;17651;52.262;10.498;2023-04-24T03:12:08;1.52;;;1.30;;
30970;SDS011;17651;52.262;10.498;2023-04-24T03:14:19;1.60;;;1.10;;
30970;SDS011;17651;52.262;10.498;2023-04-24T03:16:30;1.00;;;1.00;;
30970;SDS011;17651;52.262;10.498;2023-04-24T03:18:41;1.38;;;1.27;;
30970;SDS011;17651;52.262;10.498;2023-04-24T03:20:53;2.40;;;1.48;;
30970;SDS011;17651;52.262;10.498;2023-04-24T03:23:04;1.90;;;1.30;;
30970;SDS011;17651;52.262;10.498;2023-04-24T03:25:16;1.38;;;1.13;;
30970;SDS011;17651;52.262;10.498;2023-04-24T03:27:27;1.38;;;1.10;;
30970;SDS011;17651;52.262;10.498;2023-04-24T03:29:41;1.17;;;1.08;;
30970;SDS011;17651;52.262;10.498;2023-04-24T03:31:52;2.05;;;1.10;;
30970;SDS011;17651;52.262;10.498;2023-04-24T03:34:04;2.10;;;1.30;;
30970;SDS011;17651;52.262;10.498;2023-04-24T03:36:16;1.02;;;0.80;;
30970;SDS011;17651;52.262;10.498;2023-04-24T03:38:27;1.20;;;0.90;;
30970;SDS011;17651;52.262;10.498;2023-04-24T03:40:45;1.95;;;0.88;;
30970;SDS011;17651;52.262;10.498;2023-04-24T03:43:25;1.90;;;1.10;;
30970;SDS011;17651;52.262;10.498;2023-04-24T03:45:39;2.45;;;1.08;;
30970;SDS011;17651;52.262;10.498;2023-04-24T03:47:50;1.08;;;0.98;;
30970;SDS011;17651;52.262;10.498;2023-04-24T03:50:02;1.48;;;1.23;;
30970;SDS011;17651;52.262;10.498;2023-04-24T03:52:14;1.10;;;0.95;;
30970;SDS011;17651;52.262;10.498;2023-04-24T03:54:26;1.15;;;1.00;;
30970;SDS011;17651;52.262;10.498;2023-04-24T03:56:38;2.90;;;0.90;;
30970;SDS011;17651;52.262;10.498;2023-04-24T03:58:49;1.70;;;0.75;;
30970;SDS011;17651;52.262;10.498;2023-04-24T04:01:01;1.73;;;0.90;;
30970;SDS011;17651;52.262;10.498;2023-04-24T04:03:38;2.95;;;0.90;;
30970;SDS011;17651;52.262;10.498;2023-04-24T04:05:50;2.38;;;0.80;;
30970;SDS011;17651;52.262;10.498;2023-04-24T04:08:01;1.38;;;0.90;;
30970;SDS011;17651;52.262;10.498;2023-04-24T04:10:12;1.40;;;1.00;;
30970;SDS011;17651;52.262;10.498;2023-04-24T04:12:23;1.58;;;1.15;;
30970;SDS011;17651;52.262;10.498;2023-04-24T04:14:34;0.90;;;0.90;;
30970;SDS011;17651;52.262;10.498;2023-04-24T04:16:46;1.40;;;1.02;;
30970;SDS011;17651;52.262;10.498;2023-04-24T04:18:57;1.95;;;1.13;;
30970;SDS011;17651;52.262;10.498;2023-04-24T04:21:09;1.20;;;1.10;;
30970;SDS011;17651;52.262;10.498;2023-04-24T04:23:20;2.72;;;1.10;;
30970;SDS011;17651;52.262;10.498;2023-04-24T04:25:52;1.15;;;0.98;;
30970;SDS011;17651;52.262;10.498;2023-04-24T04:28:08;2.13;;;1.20;;
30970;SDS011;17651;52.262;10.498;2023-04-24T04:30:19;1.58;;;1.00;;
30970;SDS011;17651;52.262;10.498;2023-04-24T04:32:37;3.42;;;1.50;;
30970;SDS011;17651;52.262;10.498;2023-04-24T04:34:48;1.02;;;1.00;;
30970;SDS011;17651;52.262;10.498;2023-04-24T04:37:03;2.65;;;1.10;;
30970;SDS011;17651;52.262;10.498;2023-04-24T04:39:29;1.08;;;1.08;;
30970;SDS011;17651;52.262;10.498;2023-04-24T04:41:44;4.57;;;1.25;;
30970;SDS011;17651;52.262;10.498;2023-04-24T04:44:00;2.25;;;1.20;;
30970;SDS011;17651;52.262;10.498;2023-04-24T04:46:15;1.77;;;0.90;;
30970;SDS011;17651;52.262;10.498;2023-04-24T04:48:33;2.33;;;1.35;;
30970;SDS011;17651;52.262;10.498;2023-04-24T04:50:46;2.35;;;1.20;;
30970;SDS011;17651;52.262;10.498;2023-04-24T04:52:58;1.27;;;1.13;;
30970;SDS011;17651;52.262;10.498;2023-04-24T04:55:15;1.35;;;1.25;;
30970;SDS011;17651;52.262;10.498;2023-04-24T04:57:49;1.30;;;1.20;;
30970;SDS011;17651;52.262;10.498;2023-04-24T05:00:00;1.90;;;1.70;;
30970;SDS011;17651;52.262;10.498;2023-04-24T05:02:24;3.38;;;1.50;;
30970;SDS011;17651;52.262;10.498;2023-04-24T05:04:35;1.45;;;1.35;;
30970;SDS011;17651;52.262;10.498;2023-04-24T05:06:47;1.88;;;1.13;;
30970;SDS011;17651;52.262;10.498;2023-04-24T05:08:58;2.25;;;1.30;;
30970;SDS011;17651;52.262;10.498;2023-04-24T05:11:16;2.95;;;1.55;;
30970;SDS011;17651;52.262;10.498;2023-04-24T05:13:28;3.67;;;1.70;;
30970;SDS011;17651;52.262;10.498;2023-04-24T05:15:39;1.90;;;1.63;;
30970;SDS011;17651;52.262;10.498;2023-04-24T05:17:51;3.08;;;1.65;;
30970;SDS011;17651;52.262;10.498;2023-04-24T05:20:02;3.55;;;2.22;;
30970;SDS011;17651;52.262;10.498;2023-04-24T05:22:17;3.08;;;2.10;;
30970;SDS011;17651;52.262;10.498;2023-04-24T05:24:35;6.60;;;2.25;;
30970;SDS011;17651;52.262;10.498;2023-04-24T05:26:49;3.45;;;2.33;;
30970;SDS011;17651;52.262;10.498;2023-04-24T05:29:04;4.22;;;1.90;;
30970;SDS011;17651;52.262;10.498;2023-04-24T05:31:16;5.63;;;2.63;;
30970;SDS011;17651;52.262;10.498;2023-04-24T05:33:28;5.43;;;2.55;;
30970;SDS011;17651;52.262;10.498;2023-04-24T05:35:40;2.53;;;1.80;;
30970;SDS011;17651;52.262;10.498;2023-04-24T05:38:01;1.80;;;1.40;;
30970;SDS011;17651;52.262;10.498;2023-04-24T05:40:12;1.85;;;1.60;;
30970;SDS011;17651;52.262;10.498;2023-04-24T05:42:23;3.45;;;1.77;;
30970;SDS011;17651;52.262;10.498;2023-04-24T05:44:35;2.42;;;1.50;;
30970;SDS011;17651;52.262;10.498;2023-04-24T05:46:46;2.55;;;1.30;;
30970;SDS011;17651;52.262;10.498;2023-04-24T05:48:57;2.08;;;1.42;;
30970;SDS011;17651;52.262;10.498;2023-04-24T05:51:09;1.38;;;1.27;;
30970;SDS011;17651;52.262;10.498;2023-04-24T05:53:20;1.50;;;1.23;;
30970;SDS011;17651;52.262;10.498;2023-04-24T05:55:32;3.15;;;1.60;;
30970;SDS011;17651;52.262;10.498;2023-04-24T05:57:43;2.65;;;1.38;;
30970;SDS011;17651;52.262;10.498;2023-04-24T05:59:55;3.60;;;1.65;;
30970;SDS011;17651;52.262;10.498;2023-04-24T06:02:06;3.33;;;1.50;;
30970;SDS011;17651;52.262;10.498;2023-04-24T06:04:18;2.55;;;1.55;;
30970;SDS011;17651;52.262;10.498;2023-04-24T06:06:29;2.22;;;1.70;;
30970;SDS011;17651;52.262;10.498;2023-04-24T06:08:41;1.40;;;1.30;;
30970;SDS011;17651;52.262;10.498;2023-04-24T06:10:55;2.67;;;1.85;;
30970;SDS011;17651;52.262;10.498;2023-04-24T06:13:06;2.97;;;1.70;;
30970;SDS011;17651;52.262;10.498;2023-04-24T06:15:20;4.18;;;1.50;;
30970;SDS011;17651;52.262;10.498;2023-04-24T06:17:41;5.72;;;2.03;;
30970;SDS011;17651;52.262;10.498;2023-04-24T06:19:52;4.20;;;1.90;;
30970;SDS011;17651;52.262;10.498;2023-04-24T06:22:05;3.33;;;1.70;;
30970;SDS011;17651;52.262;10.498;2023-04-24T06:24:16;2.97;;;1.60;;
30970;SDS011;17651;52.262;10.498;2023-04-24T06:26:27;3.65;;;1.50;;
30970;SDS011;17651;52.262;10.498;2023-04-24T06:28:39;3.88;;;1.50;;
30970;SDS011;17651;52.262;10.498;2023-04-24T06:30:50;1.80;;;1.42;;
30970;SDS011;17651;52.262;10.498;2023-04-24T06:33:01;1.98;;;1.35;;
30970;SDS011;17651;52.262;10.498;2023-04-24T06:35:12;1.90;;;1.25;;
30970;SDS011;17651;52.262;10.498;2023-04-24T06:37:23;5.55;;;1.52;;
30970;SDS011;17651;52.262;10.498;2023-04-24T06:39:35;2.13;;;1.40;;
30970;SDS011;17651;52.262;10.498;2023-04-24T06:41:46;1.55;;;1.40;;
30970;SDS011;17651;52.262;10.498;2023-04-24T06:44:03;1.40;;;1.30;;
30970;SDS011;17651;52.262;10.498;2023-04-24T06:46:14;1.40;;;1.25;;
30970;SDS011;17651;52.262;10.498;2023-04-24T06:48:25;1.70;;;1.42;;
30970;SDS011;17651;52.262;10.498;2023-04-24T06:50:36;1.92;;;1.40;;
30970;SDS011;17651;52.262;10.498;2023-04-24T06:52:48;1.50;;;1.40;;
30970;SDS011;17651;52.262;10.498;2023-04-24T06:55:02;1.90;;;1.35;;
30970;SDS011;17651;52.262;10.498;2023-04-24T06:57:14;1.95;;;1.50;;
30970;SDS011;17651;52.262;10.498;2023-04-24T06:59:26;1.75;;;1.60;;
30970;SDS011;17651;52.262;10.498;2023-04-24T07:01:38;3.88;;;1.55;;
30970;SDS011;17651;52.262;10.498;2023-04-24T07:03:49;2.65;;;1.58;;
30970;SDS011;17651;52.262;10.498;2023-04-24T07:06:00;1.83;;;1.67;;
30970;SDS011;17651;52.262;10.498;2023-04-24T07:08:13;4.20;;;1.50;;
30970;SDS011;17651;52.262;10.498;2023-04-24T07:10:24;2.33;;;1.35;;
30970;SDS011;17651;52.262;10.498;2023-04-24T07:12:38;3.17;;;1.42;;
30970;SDS011;17651;52.262;10.498;2023-04-24T07:14:50;2.10;;;1.50;;
30970;SDS011;17651;52.262;10.498;2023-04-24T07:17:02;1.58;;;1.48;;
30970;SDS011;17651;52.262;10.498;2023-04-24T07:19:13;1.95;;;1.45;;
30970;SDS011;17651;52.262;10.498;2023-04-24T07:21:24;1.42;;;1.33;;
30970;SDS011;17651;52.262;10.498;2023-04-24T07:23:35;3.92;;;1.40;;
30970;SDS011;17651;52.262;10.498;2023-04-24T07:25:46;1.90;;;1.70;;
30970;SDS011;17651;52.262;10.498;2023-04-24T07:27:57;3.00;;;1.45;;
30970;SDS011;17651;52.262;10.498;2023-04-24T07:30:09;4.50;;;1.58;;
30970;SDS011;17651;52.262;10.498;2023-04-24T07:32:20;1.58;;;1.33;;
30970;SDS011;17651;52.262;10.498;2023-04-24T07:34:31;1.40;;;1.30;;
30970;SDS011;17651;52.262;10.498;2023-04-24T07:36:42;2.33;;;1.10;;
30970;SDS011;17651;52.262;10.498;2023-04-24T07:38:53;1.27;;;1.17;;
30970;SDS011;17651;52.262;10.498;2023-04-24T07:41:05;1.92;;;1.60;;
30970;SDS011;17651;52.262;10.498;2023-04-24T07:43:16;2.65;;;1.67;;
30970;SDS011;17651;52.262;10.498;2023-04-24T07:45:28;2.63;;;1.65;;
30970;SDS011;17651;52.262;10.498;2023-04-24T07:47:39;2.30;;;1.77;;
30970;SDS011;17651;52.262;10.498;2023-04-24T07:49:50;3.45;;;1.67;;
30970;SDS011;17651;52.262;10.498;2023-04-24T07:52:01;4.82;;;1.98;;
30970;SDS011;17651;52.262;10.498;2023-04-24T07:54:12;2.53;;;1.73;;
30970;SDS011;17651;52.262;10.498;2023-04-24T07:56:23;1.77;;;1.67;;
30970;SDS011;17651;52.262;10.498;2023-04-24T07:58:35;1.88;;;1.52;;
30970;SDS011;17651;52.262;10.498;2023-04-24T08:00:46;1.83;;;1.70;;
30970;SDS011;17651;52.262;10.498;2023-04-24T08:02:57;2.80;;;1.80;;
30970;SDS011;17651;52.262;10.498;2023-04-24T08:05:08;2.00;;;1.90;;
30970;SDS011;17651;52.262;10.498;2023-04-24T08:07:20;2.75;;;1.90;;
30970;SDS011;17651;52.262;10.498;2023-04-24T08:09:31;2.60;;;1.98;;
30970;SDS011;17651;52.262;10.498;2023-04-24T08:11:43;2.10;;;1.90;;
30970;SDS011;17651;52.262;10.498;2023-04-24T08:13:54;2.50;;;2.30;;
30970;SDS011;17651;52.262;10.498;2023-04-24T08:16:05;3.78;;;2.33;;
30970;SDS011;17651;52.262;10.498;2023-04-24T08:18:16;2.13;;;1.92;;
30970;SDS011;17651;52.262;10.498;2023-04-24T08:20:27;2.40;;;2.20;;
30970;SDS011;17651;52.262;10.498;2023-04-24T08:22:38;2.88;;;2.58;;
30970;SDS011;17651;52.262;10.498;2023-04-24T08:24:51;2.33;;;2.10;;
30970;SDS011;17651;52.262;10.498;2023-04-24T08:27:02;2.45;;;2.17;;
30970;SDS011;17651;52.262;10.498;2023-04-24T08:29:13;2.50;;;2.17;;
30970;SDS011;17651;52.262;10.498;2023-04-24T08:31:24;4.55;;;2.10;;
30970;SDS011;17651;52.262;10.498;2023-04-24T08:33:36;2.85;;;2.55;;
30970;SDS011;17651;52.262;10.498;2023-04-24T08:35:47;3.55;;;2.33;;
30970;SDS011;17651;52.262;10.498;2023-04-24T08:37:58;2.80;;;2.28;;
30970;SDS011;17651;52.262;10.498;2023-04-24T08:40:12;2.83;;;2.47;;
30970;SDS011;17651;52.262;10.498;2023-04-24T08:42:24;2.67;;;2.47;;
30970;SDS011;17651;52.262;10.498;2023-04-24T08:44:35;3.55;;;2.75;;
30970;SDS011;17651;52.262;10.498;2023-04-24T08:46:47;4.90;;;3.10;;
30970;SDS011;17651;52.262;10.498;2023-04-24T08:48:59;3.40;;;2.30;;
30970;SDS011;17651;52.262;10.498;2023-04-24T08:51:10;2.72;;;2.53;;
30970;SDS011;17651;52.262;10.498;2023-04-24T08:53:21;6.78;;;3.50;;
30970;SDS011;17651;52.262;10.498;2023-04-24T08:55:33;4.20;;;2.83;;
30970;SDS011;17651;52.262;10.498;2023-04-24T08:57:45;3.63;;;2.97;;
30970;SDS011;17651;52.262;10.498;2023-04-24T08:59:58;4.65;;;2.90;;
30970;SDS011;17651;52.262;10.498;2023-04-24T09:02:10;3.75;;;3.42;;
30970;SDS011;17651;52.262;10.498;2023-04-24T09:04:21;4.43;;;3.28;;
30970;SDS011;17651;52.262;10.498;2023-04-24T09:06:34;5.45;;;4.45;;
30970;SDS011;17651;52.262;10.498;2023-04-24T09:08:45;5.35;;;3.65;;
30970;SDS011;17651;52.262;10.498;2023-04-24T09:10:57;3.72;;;3.30;;
30970;SDS011;17651;52.262;10.498;2023-04-24T09:13:11;4.38;;;3.25;;
30970;SDS011;17651;52.262;10.498;2023-04-24T09:15:23;5.60;;;2.95;;
30970;SDS011;17651;52.262;10.498;2023-04-24T09:17:34;5.57;;;4.13;;
30970;SDS011;17651;52.262;10.498;2023-04-24T09:19:45;5.93;;;4.13;;
30970;SDS011;17651;52.262;10.498;2023-04-24T09:21:56;4.47;;;3.75;;
30970;SDS011;17651;52.262;10.498;2023-04-24T09:24:08;4.45;;;3.35;;
30970;SDS011;17651;52.262;10.498;2023-04-24T09:26:31;4.22;;;2.95;;
30970;SDS011;17651;52.262;10.498;2023-04-24T09:28:42;3.38;;;2.80;;
30970;SDS011;17651;52.262;10.498;2023-04-24T09:31:01;4.43;;;3.60;;
30970;SDS011;17651;52.262;10.498;2023-04-24T09:33:13;3.83;;;3.08;;
30970;SDS011;17651;52.262;10.498;2023-04-24T09:35:25;4.15;;;3.67;;
30970;SDS011;17651;52.262;10.498;2023-04-24T09:37:37;5.50;;;3.85;;
30970;SDS011;17651;52.262;10.498;2023-04-24T09:40:06;4.68;;;4.07;;
30970;SDS011;17651;52.262;10.498;2023-04-24T09:42:18;4.57;;;3.58;;
30970;SDS011;17651;52.262;10.498;2023-04-24T09:44:30;3.83;;;3.42;;
30970;SDS011;17651;52.262;10.498;2023-04-24T09:46:41;4.68;;;3.88;;
30970;SDS011;17651;52.262;10.498;2023-04-24T09:48:52;5.18;;;3.30;;
30970;SDS011;17651;52.262;10.498;2023-04-24T09:51:04;4.80;;;3.67;;
30970;SDS011;17651;52.262;10.498;2023-04-24T09:53:24;4.10;;;3.53;;
30970;SDS011;17651;52.262;10.498;2023-04-24T09:55:40;4.63;;;4.07;;
30970;SDS011;17651;52.262;10.498;2023-04-24T09:57:56;5.25;;;4.43;;
30970;SDS011;17651;52.262;10.498;2023-04-24T10:00:07;4.10;;;3.70;;
30970;SDS011;17651;52.262;10.498;2023-04-24T10:02:21;3.65;;;3.30;;
30970;SDS011;17651;52.262;10.498;2023-04-24T10:04:32;3.78;;;2.92;;
30970;SDS011;17651;52.262;10.498;2023-04-24T10:06:44;3.65;;;3.10;;
30970;SDS011;17651;52.262;10.498;2023-04-24T10:08:55;6.65;;;3.47;;
30970;SDS011;17651;52.262;10.498;2023-04-24T10:11:08;3.55;;;3.10;;
30970;SDS011;17651;52.262;10.498;2023-04-24T10:13:21;5.70;;;2.90;;
30970;SDS011;17651;52.262;10.498;2023-04-24T10:15:32;3.30;;;3.00;;
30970;SDS011;17651;52.262;10.498;2023-04-24T10:17:43;3.40;;;3.08;;
30970;SDS011;17651;52.262;10.498;2023-04-24T10:19:56;4.78;;;2.97;;
30970;SDS011;17651;52.262;10.498;2023-04-24T10:22:07;3.53;;;3.22;;
30970;SDS011;17651;52.262;10.498;2023-04-24T10:24:18;4.70;;;2.95;;
30970;SDS011;17651;52.262;10.498;2023-04-24T10:26:32;3.75;;;2.97;;
30970;SDS011;17651;52.262;10.498;2023-04-24T10:28:44;3.35;;;2.67;;
30970;SDS011;17651;52.262;10.498;2023-04-24T10:30:55;4.75;;;3.47;;
30970;SDS011;17651;52.262;10.498;2023-04-24T10:33:08;5.63;;;3.65;;
30970;SDS011;17651;52.262;10.498;2023-04-24T10:35:19;3.67;;;3.33;;
30970;SDS011;17651;52.262;10.498;2023-04-24T10:37:36;3.92;;;3.20;;
30970;SDS011;17651;52.262;10.498;2023-04-24T10:39:48;4.55;;;3.08;;
30970;SDS011;17651;52.262;10.498;2023-04-24T10:42:01;4.25;;;3.35;;
30970;SDS011;17651;52.262;10.498;2023-04-24T10:44:13;4.45;;;3.50;;
30970;SDS011;17651;52.262;10.498;2023-04-24T10:46:26;4.85;;;3.00;;
30970;SDS011;17651;52.262;10.498;2023-04-24T10:48:42;3.50;;;3.20;;
30970;SDS011;17651;52.262;10.498;2023-04-24T10:50:54;4.55;;;2.55;;
30970;SDS011;17651;52.262;10.498;2023-04-24T10:53:06;6.00;;;2.75;;
30970;SDS011;17651;52.262;10.498;2023-04-24T10:55:39;2.70;;;2.50;;
30970;SDS011;17651;52.262;10.498;2023-04-24T10:58:04;4.88;;;2.65;;
30970;SDS011;17651;52.262;10.498;2023-04-24T11:00:16;2.92;;;2.72;;
30970;SDS011;17651;52.262;10.498;2023-04-24T11:02:36;2.28;;;2.08;;
30970;SDS011;17651;52.262;10.498;2023-04-24T11:04:47;2.35;;;2.10;;
30970;SDS011;17651;52.262;10.498;2023-04-24T11:07:02;3.17;;;1.95;;
30970;SDS011;17651;52.262;10.498;2023-04-24T11:09:14;3.10;;;2.00;;
30970;SDS011;17651;52.262;10.498;2023-04-24T11:11:28;2.75;;;2.03;;
30970;SDS011;17651;52.262;10.498;2023-04-24T11:16:20;3.42;;;2.13;;
30970;SDS011;17651;52.262;10.498;2023-04-24T11:18:37;5.78;;;2.22;;
30970;SDS011;17651;52.262;10.498;2023-04-24T11:20:49;2.30;;;2.10;;
30970;SDS011;17651;52.262;10.498;2023-04-24T11:23:03;2.15;;;1.95;;
30970;SDS011;17651;52.262;10.498;2023-04-24T11:25:16;2.05;;;1.90;;
30970;SDS011;17651;52.262;10.498;2023-04-24T11:27:29;2.33;;;2.00;;
30970;SDS011;17651;52.262;10.498;2023-04-24T11:29:46;2.38;;;2.05;;
30970;SDS011;17651;52.262;10.498;2023-04-24T11:31:57;3.03;;;1.90;;
30970;SDS011;17651;52.262;10.498;2023-04-24T11:34:24;1.70;;;1.60;;
30970;SDS011;17651;52.262;10.498;2023-04-24T11:36:36;2.55;;;1.80;;
30970;SDS011;17651;52.262;10.498;2023-04-24T11:38:47;2.38;;;2.00;;
30970;SDS011;17651;52.262;10.498;2023-04-24T11:40:58;3.15;;;2.53;;
30970;SDS011;17651;52.262;10.498;2023-04-24T11:43:10;1.80;;;1.70;;
30970;SDS011;17651;52.262;10.498;2023-04-24T11:45:24;1.77;;;1.67;;
30970;SDS011;17651;52.262;10.498;2023-04-24T11:47:36;1.90;;;1.42;;
30970;SDS011;17651;52.262;10.498;2023-04-24T11:49:49;2.25;;;1.70;;
30970;SDS011;17651;52.262;10.498;2023-04-24T11:52:01;1.63;;;1.52;;
30970;SDS011;17651;52.262;10.498;2023-04-24T11:54:12;2.63;;;2.00;;
30970;SDS011;17651;52.262;10.498;2023-04-24T11:56:23;2.90;;;1.98;;
30970;SDS011;17651;52.262;10.498;2023-04-24T11:58:35;6.03;;;2.33;;
30970;SDS011;17651;52.262;10.498;2023-04-24T12:00:55;2.55;;;2.35;;
30970;SDS011;17651;52.262;10.498;2023-04-24T12:03:10;2.28;;;2.08;;
30970;SDS011;17651;52.262;10.498;2023-04-24T12:05:22;2.75;;;1.98;;
30970;SDS011;17651;52.262;10.498;2023-04-24T12:07:40;2.78;;;2.20;;
30970;SDS011;17651;52.262;10.498;2023-04-24T12:09:58;3.60;;;2.33;;
30970;SDS011;17651;52.262;10.498;2023-04-24T12:12:10;4.18;;;2.30;;
30970;SDS011;17651;52.262;10.498;2023-04-24T12:14:21;2.10;;;1.90;;
30970;SDS011;17651;52.262;10.498;2023-04-24T12:16:32;2.15;;;2.03;;
30970;SDS011;17651;52.262;10.498;2023-04-24T12:18:44;3.13;;;2.60;;
30970;SDS011;17651;52.262;10.498;2023-04-24T12:21:01;2.30;;;2.10;;
30970;SDS011;17651;52.262;10.498;2023-04-24T12:23:34;2.00;;;1.90;;
30970;SDS011;17651;52.262;10.498;2023-04-24T12:25:45;2.10;;;1.90;;
30970;SDS011;17651;52.262;10.498;2023-04-24T12:30:14;2.72;;;1.98;;
30970;SDS011;17651;52.262;10.498;2023-04-24T12:32:26;2.50;;;1.85;;
30970;SDS011;17651;52.262;10.498;2023-04-24T12:34:37;2.65;;;2.00;;
30970;SDS011;17651;52.262;10.498;2023-04-24T12:36:48;2.60;;;2.35;;
30970;SDS011;17651;52.262;10.498;2023-04-24T12:38:59;5.28;;;2.20;;
30970;SDS011;17651;52.262;10.498;2023-04-24T12:41:11;2.20;;;1.88;;
30970;SDS011;17651;52.262;10.498;2023-04-24T12:43:23;3.03;;;2.10;;
30970;SDS011;17651;52.262;10.498;2023-04-24T12:45:34;2.53;;;1.75;;
30970;SDS011;17651;52.262;10.498;2023-04-24T12:47:45;2.22;;;1.77;;
30970;SDS011;17651;52.262;10.498;2023-04-24T12:49:57;2.65;;;2.22;;
30970;SDS011;17651;52.262;10.498;2023-04-24T12:52:08;1.80;;;1.70;;
30970;SDS011;17651;52.262;10.498;2023-04-24T12:54:19;3.90;;;1.90;;
30970;SDS011;17651;52.262;10.498;2023-04-24T12:56:30;3.25;;;1.60;;
30970;SDS011;17651;52.262;10.498;2023-04-24T12:58:41;1.50;;;1.40;;
30970;SDS011;17651;52.262;10.498;2023-04-24T13:00:52;4.55;;;3.38;;
30970;SDS011;17651;52.262;10.498;2023-04-24T13:03:04;0.70;;;0.70;;
30970;SDS011;17651;52.262;10.498;2023-04-24T13:05:15;0.73;;;0.70;;
30970;SDS011;17651;52.262;10.498;2023-04-24T13:07:26;1.35;;;0.60;;
30970;SDS011;17651;52.262;10.498;2023-04-24T13:09:38;0.82;;;0.68;;
30970;SDS011;17651;52.262;10.498;2023-04-24T13:11:49;1.70;;;0.90;;